SBI1937 UIII-UIAA
Flight info
| Callsign | SBI1937 |
|---|---|
| Flight time | 1h 2m |
| Altitude | 300 |
| Route | KA5C KA A91 MAKID MAKI2L |
| Aircraft | A320/M-SDE2E3FGHIJ1RWXY/LB1 |
Departure
| Time | 2026-05-07 14:48 |
|---|---|
| Airport | Irkutsk International Airport (UIII) |
Arrival
| Time | 2026-05-07 15:51 |
|---|---|
| Airport | Chita-Kadala International Airport (UIAA) |
| Time | Latitude | Longitude | Altitude | Speed | Heading |
|---|---|---|---|---|---|
| 2026-05-07 14:02 | 52.27128 | 104.36053 | 1584 ft | 0 kts | 178° |
| 2026-05-07 14:27 | 52.27132 | 104.36052 | 1584 ft | 1 kts | 178° |
| 2026-05-07 14:27 | 52.27138 | 104.36052 | 1584 ft | 1 kts | 178° |
| 2026-05-07 14:27 | 52.27146 | 104.36052 | 1584 ft | 1 kts | 178° |
| 2026-05-07 14:27 | 52.27153 | 104.36051 | 1584 ft | 0 kts | 178° |
| 2026-05-07 14:28 | 52.27159 | 104.36051 | 1584 ft | 1 kts | 178° |
| 2026-05-07 14:28 | 52.27166 | 104.36050 | 1584 ft | 1 kts | 167° |
| 2026-05-07 14:28 | 52.27173 | 104.36047 | 1584 ft | 1 kts | 148° |
| 2026-05-07 14:28 | 52.27180 | 104.36040 | 1584 ft | 1 kts | 129° |
| 2026-05-07 14:29 | 52.27184 | 104.36030 | 1584 ft | 1 kts | 110° |
| 2026-05-07 14:29 | 52.27182 | 104.36061 | 1584 ft | 0 kts | 90° |
| 2026-05-07 14:42 | 52.27182 | 104.36083 | 1584 ft | 4 kts | 90° |
| 2026-05-07 14:42 | 52.27182 | 104.36141 | 1584 ft | 6 kts | 89° |
| 2026-05-07 14:42 | 52.27183 | 104.36227 | 1584 ft | 9 kts | 90° |
| 2026-05-07 14:43 | 52.27170 | 104.36338 | 1584 ft | 11 kts | 108° |
| 2026-05-07 14:43 | 52.27140 | 104.36469 | 1584 ft | 13 kts | 111° |
| 2026-05-07 14:43 | 52.27105 | 104.36618 | 1584 ft | 8 kts | 110° |
| 2026-05-07 14:43 | 52.27103 | 104.36628 | 1584 ft | 2 kts | 110° |
| 2026-05-07 14:44 | 52.27095 | 104.36659 | 1584 ft | 4 kts | 110° |
| 2026-05-07 14:44 | 52.27084 | 104.36708 | 1585 ft | 5 kts | 110° |
| 2026-05-07 14:44 | 52.27083 | 104.36714 | 1585 ft | 1 kts | 110° |
| 2026-05-07 14:44 | 52.27080 | 104.36730 | 1585 ft | 3 kts | 108° |
| 2026-05-07 14:45 | 52.27058 | 104.36835 | 1587 ft | 14 kts | 111° |
| 2026-05-07 14:45 | 52.27022 | 104.36984 | 1591 ft | 14 kts | 110° |
| 2026-05-07 14:45 | 52.26990 | 104.37135 | 1594 ft | 14 kts | 105° |
| 2026-05-07 14:45 | 52.27022 | 104.37270 | 1596 ft | 13 kts | 55° |
| 2026-05-07 14:46 | 52.27077 | 104.37394 | 1598 ft | 14 kts | 54° |
| 2026-05-07 14:46 | 52.27133 | 104.37523 | 1602 ft | 14 kts | 53° |
| 2026-05-07 14:46 | 52.27181 | 104.37660 | 1606 ft | 12 kts | 75° |
| 2026-05-07 14:46 | 52.27165 | 104.37773 | 1610 ft | 1 kts | 112° |
| 2026-05-07 14:47 | 52.27129 | 104.37910 | 1609 ft | 45 kts | 114° |
| 2026-05-07 14:48 | 52.26884 | 104.38823 | 1630 ft | 124 kts | 114° |
| 2026-05-07 14:48 | 52.26467 | 104.40398 | 1752 ft | 174 kts | 114° |
| 2026-05-07 14:48 | 52.25950 | 104.42346 | 2206 ft | 197 kts | 114° |
| 2026-05-07 14:48 | 52.25451 | 104.44376 | 3154 ft | 185 kts | 111° |
| 2026-05-07 14:49 | 52.24969 | 104.46299 | 3960 ft | 189 kts | 112° |
| 2026-05-07 14:49 | 52.24423 | 104.48373 | 4436 ft | 208 kts | 113° |
| 2026-05-07 14:49 | 52.23814 | 104.50650 | 4886 ft | 228 kts | 113° |
| 2026-05-07 14:49 | 52.23185 | 104.53154 | 5328 ft | 249 kts | 103° |
| 2026-05-07 14:50 | 52.23189 | 104.55976 | 6073 ft | 253 kts | 72° |
| 2026-05-07 14:50 | 52.24068 | 104.58439 | 6883 ft | 255 kts | 43° |
| 2026-05-07 14:50 | 52.25014 | 104.59598 | 7403 ft | 257 kts | 29° |
| 2026-05-07 14:50 | 52.26629 | 104.60892 | 8195 ft | 260 kts | 22° |
| 2026-05-07 14:51 | 52.28305 | 104.62060 | 8997 ft | 263 kts | 22° |
| 2026-05-07 14:51 | 52.30013 | 104.63315 | 9515 ft | 280 kts | 24° |
| 2026-05-07 14:51 | 52.31814 | 104.64754 | 10117 ft | 291 kts | 26° |
| 2026-05-07 14:51 | 52.33670 | 104.66317 | 10608 ft | 311 kts | 27° |
| 2026-05-07 14:52 | 52.35652 | 104.68028 | 10889 ft | 334 kts | 27° |
| 2026-05-07 14:52 | 52.37747 | 104.69854 | 11459 ft | 344 kts | 27° |
| 2026-05-07 14:52 | 52.39869 | 104.71708 | 12269 ft | 348 kts | 27° |
| 2026-05-07 14:52 | 52.42018 | 104.73586 | 13023 ft | 352 kts | 27° |
| 2026-05-07 14:53 | 52.44194 | 104.75488 | 13776 ft | 356 kts | 27° |
| 2026-05-07 14:53 | 52.46356 | 104.77424 | 14494 ft | 360 kts | 32° |
| 2026-05-07 14:53 | 52.48215 | 104.80168 | 15188 ft | 364 kts | 52° |
| 2026-05-07 14:53 | 52.49429 | 104.83825 | 15852 ft | 368 kts | 71° |
| 2026-05-07 14:54 | 52.49854 | 104.87981 | 16504 ft | 372 kts | 89° |
| 2026-05-07 14:54 | 52.49726 | 104.92242 | 17152 ft | 376 kts | 95° |
| 2026-05-07 14:54 | 52.49532 | 104.96538 | 17799 ft | 379 kts | 93° |
| 2026-05-07 14:54 | 52.49429 | 105.00884 | 18411 ft | 383 kts | 91° |
| 2026-05-07 14:55 | 52.49425 | 105.05281 | 19026 ft | 387 kts | 89° |
| 2026-05-07 14:55 | 52.49482 | 105.09710 | 19624 ft | 391 kts | 88° |
| 2026-05-07 14:55 | 52.49568 | 105.14140 | 20210 ft | 394 kts | 88° |
| 2026-05-07 14:55 | 52.49663 | 105.18666 | 20784 ft | 397 kts | 88° |
| 2026-05-07 14:56 | 52.49756 | 105.23219 | 21331 ft | 401 kts | 88° |
| 2026-05-07 14:56 | 52.49847 | 105.27816 | 21883 ft | 405 kts | 88° |
| 2026-05-07 14:56 | 52.49935 | 105.32464 | 22418 ft | 408 kts | 88° |
| 2026-05-07 14:56 | 52.50020 | 105.37128 | 22954 ft | 411 kts | 88° |
| 2026-05-07 14:57 | 52.50104 | 105.41833 | 23459 ft | 415 kts | 88° |
| 2026-05-07 14:57 | 52.50187 | 105.46585 | 23940 ft | 418 kts | 88° |
| 2026-05-07 14:57 | 52.50268 | 105.51377 | 24445 ft | 421 kts | 88° |
| 2026-05-07 14:57 | 52.50348 | 105.56204 | 24909 ft | 424 kts | 88° |
| 2026-05-07 14:58 | 52.50426 | 105.61051 | 25383 ft | 427 kts | 88° |
| 2026-05-07 14:58 | 52.50502 | 105.65876 | 25815 ft | 430 kts | 88° |
| 2026-05-07 14:58 | 52.50578 | 105.70800 | 26222 ft | 433 kts | 88° |
| 2026-05-07 14:58 | 52.50652 | 105.75768 | 26618 ft | 436 kts | 88° |
| 2026-05-07 14:59 | 52.50725 | 105.80754 | 27008 ft | 439 kts | 89° |
| 2026-05-07 14:59 | 52.50796 | 105.85791 | 27431 ft | 441 kts | 89° |
| 2026-05-07 14:59 | 52.50865 | 105.90849 | 27786 ft | 445 kts | 89° |
| 2026-05-07 14:59 | 52.50933 | 105.95949 | 28159 ft | 446 kts | 89° |
| 2026-05-07 15:00 | 52.50998 | 106.01046 | 28569 ft | 447 kts | 89° |
| 2026-05-07 15:00 | 52.51061 | 106.06155 | 28940 ft | 449 kts | 89° |
| 2026-05-07 15:00 | 52.51123 | 106.11301 | 29233 ft | 451 kts | 89° |
| 2026-05-07 15:00 | 52.51183 | 106.16459 | 29540 ft | 454 kts | 89° |
| 2026-05-07 15:01 | 52.51240 | 106.21649 | 29847 ft | 456 kts | 89° |
| 2026-05-07 15:01 | 52.51295 | 106.26799 | 29987 ft | 458 kts | 89° |
| 2026-05-07 15:01 | 52.51400 | 106.37240 | 30000 ft | 457 kts | 89° |
| 2026-05-07 15:02 | 52.51495 | 106.47672 | 30000 ft | 457 kts | 89° |
| 2026-05-07 15:02 | 52.51581 | 106.58093 | 30000 ft | 457 kts | 89° |
| 2026-05-07 15:03 | 52.51658 | 106.68539 | 29999 ft | 457 kts | 89° |
| 2026-05-07 15:03 | 52.51726 | 106.78976 | 29999 ft | 457 kts | 89° |
| 2026-05-07 15:04 | 52.51784 | 106.89415 | 30000 ft | 457 kts | 89° |
| 2026-05-07 15:04 | 52.51834 | 106.99855 | 30001 ft | 457 kts | 89° |
| 2026-05-07 15:05 | 52.51874 | 107.10294 | 29999 ft | 457 kts | 90° |
| 2026-05-07 15:05 | 52.51905 | 107.20749 | 30000 ft | 459 kts | 90° |
| 2026-05-07 15:06 | 52.51927 | 107.31235 | 30001 ft | 461 kts | 90° |
| 2026-05-07 15:06 | 52.51940 | 107.41703 | 30000 ft | 462 kts | 90° |
| 2026-05-07 15:07 | 52.51943 | 107.52289 | 30000 ft | 462 kts | 90° |
| 2026-05-07 15:07 | 52.51937 | 107.62801 | 30000 ft | 460 kts | 90° |
| 2026-05-07 15:08 | 52.51922 | 107.73312 | 29999 ft | 460 kts | 90° |
| 2026-05-07 15:08 | 52.51897 | 107.83778 | 29999 ft | 459 kts | 90° |
| 2026-05-07 15:09 | 52.51864 | 107.94276 | 30002 ft | 458 kts | 90° |
| 2026-05-07 15:09 | 52.51821 | 108.04742 | 30001 ft | 457 kts | 90° |
| 2026-05-07 15:10 | 52.51769 | 108.15149 | 30000 ft | 461 kts | 90° |
| 2026-05-07 15:10 | 52.51707 | 108.25718 | 29999 ft | 465 kts | 90° |
| 2026-05-07 15:11 | 52.51636 | 108.36291 | 30000 ft | 462 kts | 90° |
| 2026-05-07 15:11 | 52.51555 | 108.46858 | 29999 ft | 463 kts | 91° |
| 2026-05-07 15:12 | 52.51465 | 108.57411 | 30000 ft | 461 kts | 91° |
| 2026-05-07 15:12 | 52.51366 | 108.67917 | 29999 ft | 462 kts | 91° |
| 2026-05-07 15:13 | 52.51257 | 108.78473 | 30001 ft | 462 kts | 91° |
| 2026-05-07 15:13 | 52.51139 | 108.89004 | 30002 ft | 463 kts | 91° |
| 2026-05-07 15:14 | 52.51011 | 108.99568 | 29999 ft | 461 kts | 91° |
| 2026-05-07 15:14 | 52.50875 | 109.10054 | 30001 ft | 459 kts | 91° |
| 2026-05-07 15:15 | 52.50731 | 109.20492 | 30000 ft | 459 kts | 91° |
| 2026-05-07 15:15 | 52.50576 | 109.30950 | 30000 ft | 459 kts | 91° |
| 2026-05-07 15:16 | 52.50412 | 109.41450 | 30001 ft | 460 kts | 91° |
| 2026-05-07 15:16 | 52.50239 | 109.51963 | 30001 ft | 462 kts | 91° |
| 2026-05-07 15:17 | 52.50055 | 109.62495 | 29999 ft | 461 kts | 91° |
| 2026-05-07 15:17 | 52.49864 | 109.73029 | 29999 ft | 461 kts | 91° |
| 2026-05-07 15:18 | 52.49665 | 109.83577 | 30001 ft | 463 kts | 92° |
| 2026-05-07 15:18 | 52.48864 | 109.94002 | 30000 ft | 461 kts | 102° |
| 2026-05-07 15:19 | 52.47463 | 110.04163 | 29999 ft | 460 kts | 102° |
| 2026-05-07 15:19 | 52.46083 | 110.14453 | 29999 ft | 461 kts | 102° |
| 2026-05-07 15:20 | 52.44695 | 110.24691 | 29999 ft | 461 kts | 103° |
| 2026-05-07 15:20 | 52.43287 | 110.34958 | 29999 ft | 461 kts | 103° |
| 2026-05-07 15:21 | 52.41875 | 110.45183 | 30000 ft | 460 kts | 103° |
| 2026-05-07 15:21 | 52.40458 | 110.55372 | 30002 ft | 459 kts | 103° |
| 2026-05-07 15:22 | 52.39032 | 110.65552 | 30000 ft | 459 kts | 103° |
| 2026-05-07 15:22 | 52.37594 | 110.75757 | 30001 ft | 460 kts | 103° |
| 2026-05-07 15:23 | 52.36266 | 110.85957 | 30001 ft | 459 kts | 101° |
| 2026-05-07 15:23 | 52.35003 | 110.96198 | 30000 ft | 459 kts | 101° |
| 2026-05-07 15:24 | 52.33707 | 111.06465 | 30001 ft | 459 kts | 102° |
| 2026-05-07 15:24 | 52.32405 | 111.16626 | 29999 ft | 459 kts | 102° |
| 2026-05-07 15:25 | 52.31081 | 111.26866 | 29999 ft | 460 kts | 102° |
| 2026-05-07 15:25 | 52.30417 | 111.31982 | 29850 ft | 458 kts | 102° |
| 2026-05-07 15:25 | 52.29756 | 111.37051 | 29426 ft | 455 kts | 102° |
| 2026-05-07 15:26 | 52.29096 | 111.42092 | 28890 ft | 451 kts | 102° |
| 2026-05-07 15:26 | 52.28440 | 111.47089 | 28312 ft | 447 kts | 102° |
| 2026-05-07 15:26 | 52.27787 | 111.52040 | 27728 ft | 443 kts | 102° |
| 2026-05-07 15:26 | 52.27138 | 111.56948 | 27125 ft | 440 kts | 102° |
| 2026-05-07 15:27 | 52.26492 | 111.61824 | 26359 ft | 440 kts | 102° |
| 2026-05-07 15:27 | 52.25847 | 111.66718 | 25561 ft | 441 kts | 102° |
| 2026-05-07 15:27 | 52.25201 | 111.71629 | 24770 ft | 442 kts | 102° |
| 2026-05-07 15:27 | 52.24554 | 111.76531 | 23954 ft | 442 kts | 102° |
| 2026-05-07 15:28 | 52.23913 | 111.81363 | 23172 ft | 441 kts | 102° |
| 2026-05-07 15:28 | 52.23263 | 111.86252 | 22372 ft | 441 kts | 102° |
| 2026-05-07 15:28 | 52.22610 | 111.91135 | 21572 ft | 440 kts | 102° |
| 2026-05-07 15:28 | 52.21959 | 111.95994 | 20771 ft | 438 kts | 102° |
| 2026-05-07 15:29 | 52.21306 | 112.00844 | 19978 ft | 437 kts | 102° |
| 2026-05-07 15:29 | 52.20655 | 112.05667 | 19175 ft | 435 kts | 102° |
| 2026-05-07 15:29 | 52.20004 | 112.10470 | 18375 ft | 433 kts | 102° |
| 2026-05-07 15:29 | 52.19356 | 112.15242 | 17576 ft | 430 kts | 102° |
| 2026-05-07 15:30 | 52.18707 | 112.20000 | 16774 ft | 427 kts | 102° |
| 2026-05-07 15:30 | 52.18064 | 112.24705 | 15976 ft | 424 kts | 102° |
| 2026-05-07 15:30 | 52.17423 | 112.29376 | 15171 ft | 421 kts | 103° |
| 2026-05-07 15:30 | 52.16786 | 112.34003 | 14378 ft | 417 kts | 103° |
| 2026-05-07 15:31 | 52.16152 | 112.38591 | 13583 ft | 414 kts | 103° |
| 2026-05-07 15:31 | 52.15528 | 112.43145 | 12774 ft | 410 kts | 101° |
| 2026-05-07 15:31 | 52.15151 | 112.47735 | 11971 ft | 407 kts | 94° |
| 2026-05-07 15:31 | 52.15040 | 112.52327 | 11178 ft | 403 kts | 92° |
| 2026-05-07 15:32 | 52.14936 | 112.56879 | 10440 ft | 399 kts | 92° |
| 2026-05-07 15:32 | 52.14830 | 112.61270 | 10117 ft | 384 kts | 92° |
| 2026-05-07 15:32 | 52.14724 | 112.65512 | 10008 ft | 365 kts | 92° |
| 2026-05-07 15:32 | 52.14620 | 112.69533 | 9998 ft | 345 kts | 92° |
| 2026-05-07 15:33 | 52.14521 | 112.73323 | 9998 ft | 326 kts | 92° |
| 2026-05-07 15:33 | 52.14426 | 112.76913 | 9937 ft | 310 kts | 92° |
| 2026-05-07 15:33 | 52.14333 | 112.80363 | 9821 ft | 297 kts | 92° |
| 2026-05-07 15:33 | 52.14244 | 112.83655 | 9709 ft | 285 kts | 92° |
| 2026-05-07 15:34 | 52.14158 | 112.86803 | 9602 ft | 273 kts | 92° |
| 2026-05-07 15:34 | 52.14075 | 112.89824 | 9487 ft | 261 kts | 92° |
| 2026-05-07 15:34 | 52.13993 | 112.92759 | 9143 ft | 260 kts | 92° |
| 2026-05-07 15:34 | 52.13909 | 112.95739 | 8587 ft | 268 kts | 92° |
| 2026-05-07 15:35 | 52.13819 | 112.98926 | 8017 ft | 291 kts | 92° |
| 2026-05-07 15:35 | 52.13724 | 113.02257 | 7441 ft | 298 kts | 92° |
| 2026-05-07 15:35 | 52.13626 | 113.05649 | 6868 ft | 302 kts | 92° |
| 2026-05-07 15:35 | 52.13527 | 113.09061 | 6461 ft | 300 kts | 92° |
| 2026-05-07 15:36 | 52.13430 | 113.12347 | 6326 ft | 287 kts | 92° |
| 2026-05-07 15:36 | 52.13336 | 113.15513 | 6300 ft | 275 kts | 92° |
| 2026-05-07 15:36 | 52.13241 | 113.18672 | 6300 ft | 281 kts | 93° |
| 2026-05-07 15:36 | 52.13147 | 113.21770 | 6298 ft | 267 kts | 93° |
| 2026-05-07 15:37 | 52.13058 | 113.24703 | 6297 ft | 251 kts | 93° |
| 2026-05-07 15:37 | 52.12973 | 113.27476 | 6302 ft | 245 kts | 93° |
| 2026-05-07 15:37 | 52.12773 | 113.30249 | 6301 ft | 247 kts | 101° |
| 2026-05-07 15:37 | 52.12451 | 113.32979 | 6302 ft | 245 kts | 101° |
| 2026-05-07 15:38 | 52.12241 | 113.34819 | 6299 ft | 245 kts | 100° |
| 2026-05-07 15:38 | 52.11937 | 113.37515 | 6300 ft | 246 kts | 100° |
| 2026-05-07 15:38 | 52.11629 | 113.40249 | 6300 ft | 245 kts | 100° |
| 2026-05-07 15:38 | 52.11321 | 113.42980 | 6300 ft | 245 kts | 100° |
| 2026-05-07 15:39 | 52.11011 | 113.45707 | 6300 ft | 245 kts | 101° |
| 2026-05-07 15:39 | 52.10699 | 113.48445 | 6301 ft | 246 kts | 101° |
| 2026-05-07 15:39 | 52.10387 | 113.51177 | 6300 ft | 246 kts | 101° |
| 2026-05-07 15:39 | 52.10074 | 113.53909 | 6300 ft | 246 kts | 101° |
| 2026-05-07 15:40 | 52.09761 | 113.56628 | 6300 ft | 246 kts | 101° |
| 2026-05-07 15:40 | 52.09446 | 113.59369 | 6300 ft | 246 kts | 101° |
| 2026-05-07 15:40 | 52.09136 | 113.62057 | 6296 ft | 233 kts | 101° |
| 2026-05-07 15:40 | 52.08847 | 113.64558 | 6295 ft | 216 kts | 101° |
| 2026-05-07 15:41 | 52.08567 | 113.66978 | 6305 ft | 225 kts | 101° |
| 2026-05-07 15:41 | 52.08279 | 113.69462 | 6298 ft | 222 kts | 101° |
| 2026-05-07 15:41 | 52.07991 | 113.71936 | 6299 ft | 222 kts | 101° |
| 2026-05-07 15:41 | 52.07678 | 113.74363 | 6293 ft | 222 kts | 110° |
| 2026-05-07 15:42 | 52.06806 | 113.76375 | 6319 ft | 219 kts | 142° |
| 2026-05-07 15:42 | 52.05407 | 113.77257 | 6301 ft | 219 kts | 177° |
| 2026-05-07 15:42 | 52.03894 | 113.76955 | 6300 ft | 220 kts | 192° |
| 2026-05-07 15:42 | 52.02431 | 113.76447 | 6295 ft | 205 kts | 193° |
| 2026-05-07 15:43 | 52.01107 | 113.75978 | 6293 ft | 184 kts | 193° |
| 2026-05-07 15:43 | 51.99916 | 113.75574 | 6292 ft | 166 kts | 192° |
| 2026-05-07 15:43 | 51.98796 | 113.75029 | 6300 ft | 176 kts | 214° |
| 2026-05-07 15:43 | 51.98778 | 113.75010 | 6299 ft | 176 kts | 215° |
| 2026-05-07 15:44 | 51.98682 | 113.74905 | 6296 ft | 175 kts | 219° |
| 2026-05-07 15:44 | 51.98022 | 113.73334 | 6303 ft | 173 kts | 253° |
| 2026-05-07 15:44 | 51.97884 | 113.71403 | 6301 ft | 173 kts | 273° |
| 2026-05-07 15:45 | 51.98024 | 113.69467 | 6300 ft | 173 kts | 280° |
| 2026-05-07 15:45 | 51.98245 | 113.67573 | 6300 ft | 173 kts | 281° |
| 2026-05-07 15:45 | 51.98394 | 113.66327 | 6299 ft | 171 kts | 281° |
| 2026-05-07 15:46 | 51.98811 | 113.62787 | 6302 ft | 173 kts | 281° |
| 2026-05-07 15:46 | 51.99039 | 113.60862 | 6197 ft | 174 kts | 281° |
| 2026-05-07 15:46 | 51.99265 | 113.58948 | 5946 ft | 172 kts | 281° |
| 2026-05-07 15:47 | 51.99488 | 113.57054 | 5677 ft | 170 kts | 281° |
| 2026-05-07 15:47 | 51.99710 | 113.55175 | 5439 ft | 168 kts | 281° |
| 2026-05-07 15:47 | 51.99930 | 113.53310 | 5177 ft | 169 kts | 281° |
| 2026-05-07 15:47 | 52.00149 | 113.51449 | 4903 ft | 165 kts | 281° |
| 2026-05-07 15:48 | 52.00356 | 113.49696 | 4651 ft | 151 kts | 281° |
| 2026-05-07 15:48 | 52.00547 | 113.48079 | 4428 ft | 145 kts | 281° |
| 2026-05-07 15:48 | 52.00739 | 113.46457 | 4202 ft | 146 kts | 281° |
| 2026-05-07 15:48 | 52.00927 | 113.44862 | 3978 ft | 146 kts | 281° |
| 2026-05-07 15:49 | 52.01116 | 113.43256 | 3766 ft | 144 kts | 281° |
| 2026-05-07 15:49 | 52.01305 | 113.41657 | 3532 ft | 144 kts | 281° |
| 2026-05-07 15:49 | 52.01493 | 113.40066 | 3310 ft | 143 kts | 281° |
| 2026-05-07 15:49 | 52.01680 | 113.38483 | 3091 ft | 143 kts | 281° |
| 2026-05-07 15:50 | 52.01866 | 113.36898 | 2866 ft | 143 kts | 281° |
| 2026-05-07 15:50 | 52.02052 | 113.35322 | 2645 ft | 142 kts | 281° |
| 2026-05-07 15:50 | 52.02238 | 113.33750 | 2422 ft | 142 kts | 281° |
| 2026-05-07 15:50 | 52.02422 | 113.32180 | 2237 ft | 142 kts | 281° |
| 2026-05-07 15:51 | 52.02586 | 113.30833 | 2236 ft | 84 kts | 281° |
| 2026-05-07 15:51 | 52.02623 | 113.30524 | 2242 ft | 7 kts | 281° |
| 2026-05-07 15:51 | 52.02637 | 113.30374 | 2245 ft | 19 kts | 280° |
| 2026-05-07 15:51 | 52.02662 | 113.30155 | 2250 ft | 19 kts | 282° |
| 2026-05-07 15:52 | 52.02687 | 113.29952 | 2255 ft | 18 kts | 281° |
| 2026-05-07 15:52 | 52.02709 | 113.29761 | 2259 ft | 16 kts | 281° |
| 2026-05-07 15:52 | 52.02654 | 113.29644 | 2260 ft | 16 kts | 195° |
| 2026-05-07 15:52 | 52.02547 | 113.29616 | 2258 ft | 16 kts | 198° |
| 2026-05-07 15:53 | 52.02505 | 113.29661 | 2257 ft | 6 kts | 111° |
| 2026-05-07 15:53 | 52.02464 | 113.29948 | 2252 ft | 31 kts | 105° |
| 2026-05-07 15:53 | 52.02442 | 113.30114 | 2249 ft | 0 kts | 102° |